Terminal Aerodrome Forecast
Issued by NWS

Current Version | Previous Version | Text Only | Print | Product List | Glossary On
Versions: 1 2 3 4 5 6 7 8 9 10 11 12 13 14 15 16 17 18 19 20 21 22 23 24 25 26 27 28 29 30 31 32
000
FTUS45 KGGW 041720
TAFOLF
TAF
KOLF 041720Z 0418/0518 23005KT P6SM VCSH SCT110
     FM050000 18006KT 6SM -SN OVC030
     FM050300 22006KT 3SM -SN OVC025
     FM050600 29012KT 2SM -SN BKN010
     FM051200 30016KT P6SM BKN020=

USA.gov is the U.S. government's official web portal to all federal, state and local government web resources and services.